Trail Creek, Indiana
Current Conditions -  °F | °C
As of 2:15 AM on Monday 24 Nov 2014 (Local Time) from KMGC Reporting Station
Drizzle Drizzle  
Wind Chill: 50°   Ceiling: 700
Heat Index: 50°   Visibility: 10mi
Dew Point: 50°   Wind: 10mph
Humidity: 100%   Direction: 230°SW
Pressure: 29.1"   Gusts: 17mph
Location:  41.687°N, 86.8677°W
Report Text: KMGC 240815Z AUTO 23009G15KT 10SM DZ OVC007 10/10 A2910 RMK AO2
Loading
Personal Weather Stations






























Interactive Weather Map New forecast layout! Learn more

10-Day Weather Forecast

Advertisements
Track Severe Weather on mobile